Time;durP1;ratioP1;P1;durP2;ratioP2;P2;SDS_P1;SDS_P2;PMS_P1;PMS_P2;Temp;Humidity;BMP_temperature;BMP_pressure;BME280_temperature;BME280_humidity;BME280_pressure;Samples;Min_cycle;Max_cycle;Signal;HPM_P1;HPM_P2
2022/07/26 00:01:02;;;;;;;;;;;;;;;23.00;60.27;99053.00;5017298;28;19913;-93
2022/07/26 00:03:27;;;;;;;;;;;;;;;22.95;59.43;99048.59;5017330;28;20394;-91
2022/07/26 00:05:52;;;;;;;;;;;;;;;22.88;60.59;99051.16;5016646;28;20378;-91
2022/07/26 00:08:17;;;;;;;;;;;;;;;22.83;60.80;99050.66;5016775;28;19913;-91
2022/07/26 00:10:44;;;;;;;;;;;;;;;22.70;61.08;99048.06;4999743;28;19913;-91
2022/07/26 00:13:09;;;;;;;;;;;;;;;22.66;61.41;99049.91;5000724;28;19940;-91
2022/07/26 00:15:35;;;;;;;;;;;;;;;22.66;60.58;99044.44;5016553;28;19913;-90
2022/07/26 00:18:00;;;;;;;;;;;;;;;22.58;60.87;99037.97;5016537;28;20414;-91
2022/07/26 00:20:25;;;;;;;;;;;;;;;22.59;61.42;99038.75;5016556;28;20387;-90
2022/07/26 00:22:51;;;;;;;;;;;;;;;22.53;61.75;99034.69;5016336;28;19975;-91
2022/07/26 00:25:16;;;;;;;;;;;;;;;22.56;61.62;99039.50;5016387;28;19920;-91
2022/07/26 00:27:41;;;;;;;;;;;;;;;22.48;61.89;99045.97;4999874;28;19963;-90
2022/07/26 00:30:07;;;;;;;;;;;;;;;22.52;60.99;99042.13;5016226;28;19913;-90
2022/07/26 00:32:32;;;;;;;;;;;;;;;22.48;61.47;99038.53;5016158;28;20394;-91
2022/07/26 00:34:58;;;;;;;;;;;;;;;22.45;61.04;99025.50;5016769;28;20298;-91
2022/07/26 00:37:23;;;;;;;;;;;;;;;22.53;60.63;99031.94;5016531;28;19921;-91
2022/07/26 00:39:49;;;;;;;;;;;;;;;22.52;59.86;99028.41;5016375;28;20363;-90
2022/07/26 00:42:14;;;;;;;;;;;;;;;22.55;60.27;99029.66;5015998;28;19939;-90
2022/07/26 00:44:40;;;;;;;;;;;;;;;22.53;60.64;99021.75;5015752;28;19913;-91
2022/07/26 00:47:05;;;;;;;;;;;;;;;22.45;61.42;99022.75;5000005;28;19913;-91
2022/07/26 00:49:30;;;;;;;;;;;;;;;22.40;61.97;99026.56;5015838;28;19917;-91
2022/07/26 00:51:56;;;;;;;;;;;;;;;22.37;61.91;99027.31;5015939;28;19920;-91
2022/07/26 00:54:21;;;;;;;;;;;;;;;22.33;61.82;99026.41;5015516;28;20007;-91
2022/07/26 00:56:46;;;;;;;;;;;;;;;22.26;62.35;99026.22;5016000;28;19913;-91
2022/07/26 00:59:12;;;;;;;;;;;;;;;22.27;62.20;99027.06;5016567;28;19935;-91
2022/07/26 01:01:37;;;;;;;;;;;;;;;22.22;62.38;99027.28;5015736;28;19963;-91
2022/07/26 01:04:02;;;;;;;;;;;;;;;22.18;62.56;99027.19;5015942;28;20387;-90
2022/07/26 01:06:28;;;;;;;;;;;;;;;22.14;62.37;99035.34;5015747;28;20055;-90
2022/07/26 01:08:53;;;;;;;;;;;;;;;22.03;62.98;99025.25;5015558;28;19913;-90
2022/07/26 01:11:18;;;;;;;;;;;;;;;22.02;63.33;99024.47;5015828;28;19960;-90
2022/07/26 01:13:44;;;;;;;;;;;;;;;22.06;62.51;99019.03;5015819;28;19975;-90
2022/07/26 01:16:10;;;;;;;;;;;;;;;22.06;62.87;99016.28;4999361;28;19920;-91
2022/07/26 01:18:35;;;;;;;;;;;;;;;22.00;62.78;99016.56;5015335;28;20012;-90
2022/07/26 01:21:00;;;;;;;;;;;;;;;21.98;63.16;99007.91;5015791;28;19918;-91
2022/07/26 01:23:26;;;;;;;;;;;;;;;21.91;62.79;99006.94;5019289;28;19971;-90
2022/07/26 01:25:51;;;;;;;;;;;;;;;21.83;62.92;99008.72;5019199;28;19921;-91
2022/07/26 01:28:17;;;;;;;;;;;;;;;21.73;63.50;99001.00;5018664;28;19979;-90
2022/07/26 01:30:42;;;;;;;;;;;;;;;21.66;63.34;99007.06;5019693;28;19920;-91
2022/07/26 01:33:08;;;;;;;;;;;;;;;21.64;63.47;99011.31;5019394;28;19917;-90
2022/07/26 01:35:33;;;;;;;;;;;;;;;21.57;63.64;99003.72;5019266;28;19913;-90
2022/07/26 01:37:58;;;;;;;;;;;;;;;21.55;63.64;99000.53;5002756;28;19913;-90
2022/07/26 01:40:24;;;;;;;;;;;;;;;21.49;63.86;98999.19;5019398;28;20354;-90
2022/07/26 01:42:49;;;;;;;;;;;;;;;21.46;64.09;99003.44;5018993;28;20004;-90
2022/07/26 01:45:14;;;;;;;;;;;;;;;21.45;63.96;99003.78;5018929;28;19913;-90
2022/07/26 01:47:40;;;;;;;;;;;;;;;21.43;63.95;98995.13;5018989;28;19940;-90
2022/07/26 01:50:05;;;;;;;;;;;;;;;21.35;64.34;98999.56;5019194;28;19920;-90
2022/07/26 01:52:31;;;;;;;;;;;;;;;21.24;64.71;99002.00;5003080;28;19975;-90
2022/07/26 01:54:57;;;;;;;;;;;;;;;21.18;64.70;98990.50;4999751;28;20355;-90
2022/07/26 01:57:22;;;;;;;;;;;;;;;21.20;64.89;98999.16;4999533;28;19914;-90
2022/07/26 01:59:47;;;;;;;;;;;;;;;21.18;65.41;99001.47;5018107;28;19913;-90
2022/07/26 02:02:13;;;;;;;;;;;;;;;21.10;65.47;99007.88;5002358;28;19920;-90
2022/07/26 02:07:22;;;;;;;;;;;;;;;21.07;65.23;99002.31;5021596;28;19959;-90
2022/07/26 02:09:48;;;;;;;;;;;;;;;21.00;65.37;99005.66;4998847;28;20288;-90
2022/07/26 02:12:13;;;;;;;;;;;;;;;20.99;65.33;98998.56;4998980;28;20012;-90
2022/07/26 02:14:38;;;;;;;;;;;;;;;20.93;65.58;99000.75;5013192;28;20356;-90
2022/07/26 02:17:04;;;;;;;;;;;;;;;20.96;65.52;99004.75;4998823;28;20390;-91
2022/07/26 02:19:29;;;;;;;;;;;;;;;20.98;65.36;98997.00;5018497;28;19913;-90
2022/07/26 02:21:55;;;;;;;;;;;;;;;20.93;65.51;98997.22;5018518;28;20000;-90
2022/07/26 02:24:20;;;;;;;;;;;;;;;20.93;65.78;98991.75;5018057;28;19913;-90
2022/07/26 02:26:45;;;;;;;;;;;;;;;21.01;65.69;98987.28;5018478;28;19925;-90
2022/07/26 02:29:11;;;;;;;;;;;;;;;21.02;65.90;98995.13;5018371;28;20346;-90
2022/07/26 02:31:36;;;;;;;;;;;;;;;20.95;65.62;99001.19;5018459;28;19971;-91
2022/07/26 02:34:01;;;;;;;;;;;;;;;20.93;65.47;98994.50;5017405;28;19924;-90
2022/07/26 02:36:26;;;;;;;;;;;;;;;20.92;65.88;98993.69;5018118;28;19923;-90
2022/07/26 02:38:52;;;;;;;;;;;;;;;20.85;66.06;98996.22;5018206;28;19919;-90
2022/07/26 02:41:17;;;;;;;;;;;;;;;20.85;66.16;99000.91;5002169;28;20004;-90
2022/07/26 02:43:42;;;;;;;;;;;;;;;20.81;65.83;99002.72;5018392;28;20020;-90
2022/07/26 02:46:08;;;;;;;;;;;;;;;20.83;65.83;98995.75;5018292;28;19971;-91
2022/07/26 02:48:33;;;;;;;;;;;;;;;20.84;66.29;98999.31;5017963;28;19920;-90
2022/07/26 02:50:58;;;;;;;;;;;;;;;20.84;66.13;99007.53;5018035;28;20269;-91
2022/07/26 02:53:24;;;;;;;;;;;;;;;20.81;65.88;99005.47;4998109;28;19917;-90
2022/07/26 02:55:49;;;;;;;;;;;;;;;20.81;65.86;99014.47;4998364;28;19964;-90
2022/07/26 02:58:14;;;;;;;;;;;;;;;20.76;65.99;99022.94;5017731;28;20279;-90
2022/07/26 03:00:40;;;;;;;;;;;;;;;20.69;66.47;99011.75;5017599;28;20000;-90
2022/07/26 03:03:05;;;;;;;;;;;;;;;20.70;66.29;99016.88;5017552;28;19967;-90
2022/07/26 03:05:30;;;;;;;;;;;;;;;20.74;66.11;99006.84;5017750;28;19956;-89
2022/07/26 03:07:56;;;;;;;;;;;;;;;20.70;66.34;99013.38;5017342;28;19913;-90
2022/07/26 03:10:21;;;;;;;;;;;;;;;20.70;66.34;99011.41;5001105;28;19913;-90
2022/07/26 03:12:46;;;;;;;;;;;;;;;20.65;66.36;99013.56;5017664;28;19913;-90
2022/07/26 03:15:12;;;;;;;;;;;;;;;20.69;66.38;99018.03;5018308;28;19913;-92
2022/07/26 03:17:37;;;;;;;;;;;;;;;20.68;66.51;99013.69;5017451;28;19921;-90
2022/07/26 03:20:03;;;;;;;;;;;;;;;20.69;66.29;99018.03;5001256;28;20014;-90
2022/07/26 03:22:28;;;;;;;;;;;;;;;20.65;66.61;99013.56;5000711;28;19967;-90
2022/07/26 03:24:54;;;;;;;;;;;;;;;20.70;66.68;99018.84;5017914;28;19920;-90
2022/07/26 03:27:19;;;;;;;;;;;;;;;20.73;66.05;99016.22;5017307;28;19952;-89
2022/07/26 03:29:44;;;;;;;;;;;;;;;20.79;65.75;99016.75;4983124;28;19913;-90
2022/07/26 03:32:10;;;;;;;;;;;;;;;20.77;65.91;99019.84;4997591;28;19979;-91
2022/07/26 03:34:35;;;;;;;;;;;;;;;20.76;65.85;99023.72;4981241;28;19917;-91
2022/07/26 03:37:04;;;;;;;;;;;;;;;20.59;66.68;99026.72;5013351;28;19979;-90
2022/07/26 03:39:29;;;;;;;;;;;;;;;20.47;67.01;99032.16;5000665;28;20004;-90
2022/07/26 03:41:55;;;;;;;;;;;;;;;20.40;67.67;99019.06;5013803;28;19948;-90
2022/07/26 03:44:20;;;;;;;;;;;;;;;20.32;67.79;99022.72;5016429;28;19992;-90
2022/07/26 03:46:45;;;;;;;;;;;;;;;20.26;68.14;99024.88;5016128;28;20467;-92
2022/07/26 03:49:11;;;;;;;;;;;;;;;20.26;68.27;99030.34;5017105;28;20004;-91
2022/07/26 03:51:36;;;;;;;;;;;;;;;20.27;68.12;99033.88;5016739;28;19913;-91
2022/07/26 03:54:01;;;;;;;;;;;;;;;20.27;68.00;99025.66;5016638;28;19939;-92
2022/07/26 03:56:33;;;;;;;;;;;;;;;20.26;68.04;99024.88;5017334;28;20058;-92
2022/07/26 03:58:59;;;;;;;;;;;;;;;20.34;68.16;99029.44;5017579;28;19913;-94
2022/07/26 04:01:24;;;;;;;;;;;;;;;20.38;68.15;99026.81;5016400;28;19913;-91
2022/07/26 04:03:50;;;;;;;;;;;;;;;20.38;67.83;99027.59;5016627;28;19944;-92
2022/07/26 04:06:15;;;;;;;;;;;;;;;20.47;67.51;99021.22;5016398;28;19936;-92
2022/07/26 04:08:40;;;;;;;;;;;;;;;20.54;67.45;99024.16;5016517;28;19924;-90
2022/07/26 04:11:05;;;;;;;;;;;;;;;20.71;67.19;99023.16;5015735;28;19944;-90
2022/07/26 04:13:31;;;;;;;;;;;;;;;20.88;66.47;99025.63;5015430;28;19921;-90
2022/07/26 04:15:57;;;;;;;;;;;;;;;20.92;65.78;99015.59;5015470;28;19913;-91
2022/07/26 04:18:22;;;;;;;;;;;;;;;20.99;65.59;99017.72;5016395;28;19939;-91
2022/07/26 04:20:47;;;;;;;;;;;;;;;21.03;65.23;99015.91;5016364;28;19913;-90
2022/07/26 04:23:13;;;;;;;;;;;;;;;21.14;65.00;99010.72;5017550;28;19932;-92
2022/07/26 04:25:38;;;;;;;;;;;;;;;21.33;64.19;99012.81;5017181;28;19921;-94
2022/07/26 04:28:04;;;;;;;;;;;;;;;21.31;64.56;99009.63;5000950;28;19987;-95
2022/07/26 04:30:29;;;;;;;;;;;;;;;21.39;64.34;99006.75;4980454;28;19920;-91
2022/07/26 04:32:54;;;;;;;;;;;;;;;21.39;65.17;99000.47;4997162;28;19914;-92
2022/07/26 04:35:19;;;;;;;;;;;;;;;21.46;64.63;99013.56;4996657;28;19913;-87
2022/07/26 04:37:45;;;;;;;;;;;;;;;21.45;64.94;99001.84;4972974;28;20355;-90
2022/07/26 04:40:11;;;;;;;;;;;;;;;21.49;65.41;99010.16;4983487;28;19952;-91
2022/07/26 04:42:36;;;;;;;;;;;;;;;21.57;64.84;99000.97;4991487;28;19920;-91
2022/07/26 04:45:02;;;;;;;;;;;;;;;21.64;64.10;99005.84;5016480;28;19913;-91
2022/07/26 04:47:28;;;;;;;;;;;;;;;21.79;64.13;99005.88;5002789;28;19918;-90
2022/07/26 04:49:53;;;;;;;;;;;;;;;21.89;63.15;99007.28;4997197;28;20387;-92
2022/07/26 04:52:18;;;;;;;;;;;;;;;21.95;62.52;99000.38;4997200;28;19914;-93
2022/07/26 04:54:44;;;;;;;;;;;;;;;22.16;62.23;99013.84;4995571;28;19918;-87
2022/07/26 04:57:09;;;;;;;;;;;;;;;22.35;61.46;99009.59;4995581;28;20368;-92
2022/07/26 04:59:34;;;;;;;;;;;;;;;22.40;61.79;99009.31;4997353;28;19921;-92
2022/07/26 05:02:00;;;;;;;;;;;;;;;22.48;62.18;99010.28;4997380;28;19921;-93
2022/07/26 05:04:25;;;;;;;;;;;;;;;22.55;61.98;99005.75;4997243;28;20359;-93
2022/07/26 05:06:56;;;;;;;;;;;;;;;22.59;60.61;99003.09;4997202;28;19917;-92
2022/07/26 05:09:21;;;;;;;;;;;;;;;22.58;61.72;98999.56;4997674;28;19988;-92
2022/07/26 05:11:46;;;;;;;;;;;;;;;22.67;60.81;98999.34;4996799;28;20008;-92
2022/07/26 05:14:11;;;;;;;;;;;;;;;22.74;61.16;98996.78;4996483;28;19972;-91
2022/07/26 05:16:37;;;;;;;;;;;;;;;22.83;60.00;98993.00;4981484;28;19981;-94
2022/07/26 05:19:03;;;;;;;;;;;;;;;22.95;59.01;99001.09;4996460;28;19913;-92
2022/07/26 05:21:28;;;;;;;;;;;;;;;23.13;59.03;98996.00;4996743;28;19913;-92
2022/07/26 05:23:54;;;;;;;;;;;;;;;23.19;59.28;98998.09;4996666;28;20314;-91
2022/07/26 05:26:19;;;;;;;;;;;;;;;23.37;58.80;98992.97;5001418;28;20442;-93
2022/07/26 05:28:44;;;;;;;;;;;;;;;23.47;57.12;98988.03;4997120;28;19913;-90
2022/07/26 05:31:10;;;;;;;;;;;;;;;23.54;57.28;98980.72;4997053;28;19921;-92
2022/07/26 05:33:35;;;;;;;;;;;;;;;23.60;57.45;98984.75;5003170;28;20093;-90
2022/07/26 05:36:00;;;;;;;;;;;;;;;23.66;56.77;98990.75;5001306;28;19917;-94
2022/07/26 05:38:26;;;;;;;;;;;;;;;23.78;56.09;98987.84;4995409;28;19920;-96
2022/07/26 05:40:51;;;;;;;;;;;;;;;23.85;56.18;98992.66;5016813;28;19917;-93
2022/07/26 05:43:17;;;;;;;;;;;;;;;24.03;55.91;98990.22;5017228;28;19913;-93
2022/07/26 05:45:51;;;;;;;;;;;;;;;24.15;55.93;98994.72;5017994;28;19971;-95
2022/07/26 05:48:16;;;;;;;;;;;;;;;24.29;55.09;98992.19;5017370;28;19914;-91
2022/07/26 05:50:42;;;;;;;;;;;;;;;24.43;54.52;98996.34;5015971;28;19955;-90
2022/07/26 05:53:07;;;;;;;;;;;;;;;24.58;54.25;98995.41;5033073;28;20019;-90
2022/07/26 05:55:32;;;;;;;;;;;;;;;24.67;54.12;98997.88;5016079;28;19913;-94
2022/07/26 05:57:58;;;;;;;;;;;;;;;24.75;53.76;98994.84;5015833;28;19936;-91
2022/07/26 06:00:23;;;;;;;;;;;;;;;24.77;53.29;98987.00;5016323;28;19913;-92
2022/07/26 06:02:49;;;;;;;;;;;;;;;24.88;53.90;98987.16;5016094;28;20346;-90
2022/07/26 06:05:14;;;;;;;;;;;;;;;24.97;53.04;98989.63;5017143;28;20268;-91
2022/07/26 06:07:40;;;;;;;;;;;;;;;25.17;52.24;98991.06;5017588;28;19916;-91
2022/07/26 06:10:05;;;;;;;;;;;;;;;25.30;52.29;98983.34;5020223;28;19913;-91
2022/07/26 06:12:31;;;;;;;;;;;;;;;25.41;52.63;98978.72;5020291;28;19992;-92
2022/07/26 06:14:56;;;;;;;;;;;;;;;25.46;51.38;98976.81;5020266;28;19961;-93
2022/07/26 06:17:21;;;;;;;;;;;;;;;25.61;51.91;98981.31;5020476;28;19913;-94
2022/07/26 06:19:46;;;;;;;;;;;;;;;25.66;50.73;98971.88;5020188;28;19936;-92
2022/07/26 06:22:12;;;;;;;;;;;;;;;25.67;51.34;98959.66;5020727;28;20449;-91
2022/07/26 06:24:37;;;;;;;;;;;;;;;25.85;50.61;98965.34;5019656;28;19913;-93
2022/07/26 06:27:03;;;;;;;;;;;;;;;25.89;49.49;98957.91;5002554;28;19925;-92
2022/07/26 06:29:32;;;;;;;;;;;;;;;26.08;49.70;98962.41;5019990;28;19913;-92
2022/07/26 06:31:57;;;;;;;;;;;;;;;26.20;48.78;98956.59;5019714;28;19920;-93
2022/07/26 06:34:43;;;;;;;;;;;;;;;26.26;48.89;98952.28;5003550;28;20301;-92
2022/07/26 06:37:08;;;;;;;;;;;;;;;26.40;48.78;98954.34;5037596;28;20279;-93
2022/07/26 06:39:34;;;;;;;;;;;;;;;26.51;48.46;98957.97;5003580;28;19920;-96
2022/07/26 06:41:59;;;;;;;;;;;;;;;26.66;48.05;98947.00;5019618;28;20007;-92
2022/07/26 06:44:24;;;;;;;;;;;;;;;26.84;47.90;98952.63;5021482;28;20299;-91
2022/07/26 06:46:50;;;;;;;;;;;;;;;26.91;47.74;98947.91;5018961;28;19913;-92
2022/07/26 06:49:15;;;;;;;;;;;;;;;26.99;46.88;98949.50;5018576;28;20007;-93
2022/07/26 06:51:43;;;;;;;;;;;;;;;27.06;46.68;98951.53;5021098;28;19979;-94
2022/07/26 06:57:20;;;;;;;;;;;;;;;27.42;45.24;98943.34;4992267;28;19964;-95
2022/07/26 06:59:46;;;;;;;;;;;;;;;27.52;46.15;98944.56;5046849;28;19936;-93
2022/07/26 07:02:11;;;;;;;;;;;;;;;27.67;45.64;98945.34;5019335;28;19913;-92
2022/07/26 07:04:37;;;;;;;;;;;;;;;27.74;45.00;98942.56;5020964;28;19927;-94
2022/07/26 07:07:05;;;;;;;;;;;;;;;27.83;44.42;98940.22;5023982;28;19913;-93
2022/07/26 07:09:33;;;;;;;;;;;;;;;27.99;44.21;98939.81;5018425;28;19920;-93
2022/07/26 07:12:01;;;;;;;;;;;;;;;28.14;43.41;98941.41;4997754;28;19920;-93
2022/07/26 07:14:28;;;;;;;;;;;;;;;28.29;42.56;98938.63;5004780;28;19921;-96
2022/07/26 07:16:55;;;;;;;;;;;;;;;28.42;42.04;98939.75;5002793;28;19914;-95
2022/07/26 07:19:20;;;;;;;;;;;;;;;28.54;41.33;98936.59;4999636;28;19914;-92
2022/07/26 07:21:46;;;;;;;;;;;;;;;28.64;41.29;98943.31;4982451;28;20055;-96
2022/07/26 07:24:11;;;;;;;;;;;;;;;28.76;40.57;98939.28;4999364;28;19917;-92
2022/07/26 07:26:36;;;;;;;;;;;;;;;28.84;40.84;98940.06;4999660;28;19969;-94
2022/07/26 07:29:27;;;;;;;;;;;;;;;28.94;40.27;98941.97;4969292;28;19913;-93
2022/07/26 07:32:09;;;;;;;;;;;;;;;29.02;40.04;98944.31;4984721;28;19914;-94
2022/07/26 07:34:42;;;;;;;;;;;;;;;29.01;39.45;98939.97;4983710;28;19918;-93
2022/07/26 07:37:20;;;;;;;;;;;;;;;29.14;39.87;98934.00;4981698;28;19960;-93
2022/07/26 07:39:46;;;;;;;;;;;;;;;29.24;38.84;98937.88;4981016;28;19917;-93
2022/07/26 07:42:20;;;;;;;;;;;;;;;29.39;38.42;98936.63;4981001;28;19968;-95
2022/07/26 07:44:46;;;;;;;;;;;;;;;29.48;38.67;98945.25;4981908;28;19914;-92
2022/07/26 07:50:42;;;;;;;;;;;;;;;29.76;37.46;98935.16;4943053;29;19921;-94
2022/07/26 07:53:28;;;;;;;;;;;;;;;;;;;;;
2022/07/26 07:55:58;;;;;;;;;;;;;;;29.92;37.42;98935.41;4963165;28;19973;-96
2022/07/26 07:58:50;;;;;;;;;;;;;;;30.05;37.24;98927.41;4946003;28;19954;-96
2022/07/26 08:01:21;;;;;;;;;;;;;;;30.17;36.45;98924.09;4977216;28;19913;-93
2022/07/26 08:03:46;;;;;;;;;;;;;;;30.22;35.81;98920.09;4993027;28;19921;-93
2022/07/26 08:06:15;;;;;;;;;;;;;;;30.36;35.35;98921.94;4968673;28;19914;-95
2022/07/26 08:08:40;;;;;;;;;;;;;;;30.47;33.46;98919.84;4966983;28;19964;-95
2022/07/26 08:11:05;;;;;;;;;;;;;;;30.52;33.52;98922.16;4965120;28;19914;-96
2022/07/26 08:13:35;;;;;;;;;;;;;;;30.60;33.62;98918.09;4965583;28;19922;-95
2022/07/26 08:16:00;;;;;;;;;;;;;;;30.72;33.22;98913.19;4980966;28;20388;-94
2022/07/26 08:18:33;;;;;;;;;;;;;;;30.83;33.59;98913.84;4966456;28;19920;-95
2022/07/26 08:20:58;;;;;;;;;;;;;;;30.96;32.29;98909.34;4963502;28;20008;-93
2022/07/26 08:23:24;;;;;;;;;;;;;;;31.00;32.21;98910.09;4978785;28;19953;-94
2022/07/26 08:25:49;;;;;;;;;;;;;;;31.09;31.67;98911.53;4962839;28;20028;-92
2022/07/26 08:28:15;;;;;;;;;;;;;;;31.20;31.49;98903.84;4968160;28;19981;-91
2022/07/26 08:30:40;;;;;;;;;;;;;;;31.27;32.05;98903.72;4977389;28;19914;-95
2022/07/26 08:33:09;;;;;;;;;;;;;;;31.30;30.76;98908.44;4983179;28;19917;-93
2022/07/26 08:35:34;;;;;;;;;;;;;;;31.46;30.31;98898.69;4979983;28;20295;-93
2022/07/26 08:38:00;;;;;;;;;;;;;;;31.50;29.18;98902.22;4980484;28;19921;-93
2022/07/26 08:40:44;;;;;;;;;;;;;;;31.56;28.90;98900.53;4978918;28;19997;-92
2022/07/26 08:43:10;;;;;;;;;;;;;;;31.60;29.80;98901.25;4986893;28;19995;-95
2022/07/26 08:45:38;;;;;;;;;;;;;;;31.74;28.79;98897.44;4981904;28;20008;-89
2022/07/26 08:48:04;;;;;;;;;;;;;;;31.77;28.81;98893.81;4997380;28;19936;-91
2022/07/26 08:50:32;;;;;;;;;;;;;;;31.85;26.74;98892.47;4975272;28;19914;-94
2022/07/26 08:52:59;;;;;;;;;;;;;;;31.98;27.67;98895.41;4980277;28;20287;-94
2022/07/26 08:55:27;;;;;;;;;;;;;;;32.06;27.25;98896.91;4968278;28;20260;-93
2022/07/26 08:57:53;;;;;;;;;;;;;;;32.00;27.76;98893.84;4980085;28;20004;-94
2022/07/26 09:00:18;;;;;;;;;;;;;;;32.06;27.40;98884.97;4966569;28;20032;-94
2022/07/26 09:02:47;;;;;;;;;;;;;;;31.87;27.54;98884.47;4981461;28;20376;-93
2022/07/26 09:05:12;;;;;;;;;;;;;;;31.97;27.75;98885.50;4979226;28;20277;-95
2022/07/26 09:07:46;;;;;;;;;;;;;;;31.98;27.08;98876.72;4967741;28;20028;-95
2022/07/26 09:10:21;;;;;;;;;;;;;;;32.17;27.15;98891.16;4994468;28;20367;-95
2022/07/26 09:12:51;;;;;;;;;;;;;;;32.30;26.10;98883.72;4977563;28;20001;-91
2022/07/26 09:15:17;;;;;;;;;;;;;;;32.39;26.21;98872.00;4961916;28;19913;-91
2022/07/26 09:17:43;;;;;;;;;;;;;;;32.37;25.45;98875.22;4984672;28;19921;-90
2022/07/26 09:20:13;;;;;;;;;;;;;;;32.48;25.72;98869.44;4961694;28;19917;-91
2022/07/26 09:22:54;;;;;;;;;;;;;;;32.62;26.31;98882.31;4979810;28;19941;-95
2022/07/26 09:25:20;;;;;;;;;;;;;;;32.72;25.99;98880.50;4978420;28;19914;-93
2022/07/26 09:28:05;;;;;;;;;;;;;;;32.76;25.97;98873.63;4993472;28;20327;-94
2022/07/26 09:30:31;;;;;;;;;;;;;;;32.85;26.14;98872.25;4991269;28;19983;-95
2022/07/26 09:32:59;;;;;;;;;;;;;;;32.81;25.55;98869.56;5000049;28;19913;-94
2022/07/26 09:35:32;;;;;;;;;;;;;;;32.72;24.82;98870.13;4983588;28;19921;-95
2022/07/26 09:37:57;;;;;;;;;;;;;;;32.73;25.02;98855.00;5000944;28;19987;-93
2022/07/26 09:40:23;;;;;;;;;;;;;;;32.80;25.90;98849.25;5000746;28;19948;-91
2022/07/26 09:42:54;;;;;;;;;;;;;;;32.85;26.23;98850.72;4996903;28;20003;-91
2022/07/26 09:45:20;;;;;;;;;;;;;;;32.96;26.84;98847.72;4970334;28;20301;-92
2022/07/26 09:47:48;;;;;;;;;;;;;;;33.02;25.75;98849.56;4957657;28;19914;-95
2022/07/26 09:50:27;;;;;;;;;;;;;;;32.84;25.51;98840.03;4983569;28;19917;-94
2022/07/26 09:52:59;;;;;;;;;;;;;;;32.91;25.46;98834.28;4999573;28;19918;-95
2022/07/26 09:55:26;;;;;;;;;;;;;;;33.07;25.32;98837.09;4981886;28;19920;-94
2022/07/26 09:57:52;;;;;;;;;;;;;;;33.12;25.26;98831.03;4960903;28;19973;-94
2022/07/26 10:00:17;;;;;;;;;;;;;;;33.02;25.15;98832.81;4974919;28;19914;-93
2022/07/26 10:02:43;;;;;;;;;;;;;;;33.16;25.79;98830.94;4983512;28;19949;-94
2022/07/26 10:08:03;;;;;;;;;;;;;;;33.38;25.93;98837.56;4977001;28;19920;-94
2022/07/26 10:10:42;;;;;;;;;;;;;;;33.51;26.25;98823.66;4983010;28;20366;-95
2022/07/26 10:13:08;;;;;;;;;;;;;;;33.61;24.59;98819.84;4967760;28;19913;-96
2022/07/26 10:15:36;;;;;;;;;;;;;;;33.70;24.44;98813.63;4970717;28;19914;-96
2022/07/26 10:18:08;;;;;;;;;;;;;;;33.81;24.84;98822.53;4983162;28;19945;-93
2022/07/26 10:20:43;;;;;;;;;;;;;;;33.95;23.91;98821.38;4939912;29;19918;-94
2022/07/26 10:23:27;;;;;;;;;;;;;;;34.01;24.32;98811.22;4961709;28;19914;-92
2022/07/26 10:25:55;;;;;;;;;;;;;;;34.14;24.64;98810.47;4943925;29;20010;-95
2022/07/26 10:28:25;;;;;;;;;;;;;;;34.10;23.56;98804.19;4976622;28;20643;-92
2022/07/26 10:30:50;;;;;;;;;;;;;;;34.18;22.87;98805.56;4959204;28;19914;-92
2022/07/26 10:33:18;;;;;;;;;;;;;;;34.08;22.59;98801.84;4944061;28;19996;-92
2022/07/26 10:36:00;;;;;;;;;;;;;;;34.08;22.46;98795.47;4962233;28;19914;-93
2022/07/26 10:38:28;;;;;;;;;;;;;;;34.10;23.06;98793.81;4961237;28;19914;-93
2022/07/26 10:40:55;;;;;;;;;;;;;;;34.02;23.13;98786.84;4960534;28;19914;-91
2022/07/26 10:43:20;;;;;;;;;;;;;;;34.16;24.39;98785.66;4960468;28;19914;-91
2022/07/26 10:45:45;;;;;;;;;;;;;;;34.29;23.23;98785.72;4961435;28;19957;-93
2022/07/26 10:48:13;;;;;;;;;;;;;;;34.34;24.51;98785.16;4951495;29;19966;-92
2022/07/26 10:50:40;;;;;;;;;;;;;;;34.46;23.62;98787.19;4980286;28;19927;-93
2022/07/26 10:53:05;;;;;;;;;;;;;;;34.59;22.26;98787.97;5001093;28;19920;-94
2022/07/26 10:55:30;;;;;;;;;;;;;;;34.68;23.07;98773.38;4999527;28;19980;-95
2022/07/26 10:57:56;;;;;;;;;;;;;;;34.75;22.96;98775.94;5000509;28;20302;-93
2022/07/26 11:00:24;;;;;;;;;;;;;;;34.83;22.58;98775.72;4984550;28;19944;-94
2022/07/26 11:02:57;;;;;;;;;;;;;;;34.86;22.78;98770.00;5000891;28;20376;-94
2022/07/26 11:05:30;;;;;;;;;;;;;;;34.89;22.23;98762.72;5025126;28;19957;-96
2022/07/26 11:08:18;;;;;;;;;;;;;;;34.90;22.13;98761.47;5021451;28;20320;-96
2022/07/26 11:10:48;;;;;;;;;;;;;;;34.98;21.66;98755.19;4983883;28;19914;-91
2022/07/26 11:16:41;;;;;;;;;;;;;;;34.94;22.50;98745.38;5010938;28;19936;-92
2022/07/26 11:19:14;;;;;;;;;;;;;;;34.85;22.20;98743.25;4989385;28;20407;-91
2022/07/26 11:21:40;;;;;;;;;;;;;;;34.82;22.54;98744.13;4989755;28;19913;-91
2022/07/26 11:24:08;;;;;;;;;;;;;;;34.47;21.49;98740.44;5004766;28;19923;-91
2022/07/26 11:26:41;;;;;;;;;;;;;;;34.58;22.13;98730.50;4984759;28;20011;-90
2022/07/26 11:29:09;;;;;;;;;;;;;;;34.74;22.19;98738.00;5007045;28;19917;-93
2022/07/26 11:31:36;;;;;;;;;;;;;;;34.88;21.50;98736.75;5001051;28;19913;-93
2022/07/26 11:34:21;;;;;;;;;;;;;;;34.90;21.39;98720.28;5002809;28;19925;-96
2022/07/26 11:36:47;;;;;;;;;;;;;;;35.15;21.08;98732.69;5002448;28;19953;-95
2022/07/26 11:39:29;;;;;;;;;;;;;;;35.19;20.20;98722.94;4985732;28;19913;-95
2022/07/26 11:42:08;;;;;;;;;;;;;;;35.34;20.37;98720.47;4984611;28;19921;-96
2022/07/26 11:44:33;;;;;;;;;;;;;;;35.44;19.76;98721.28;4983848;28;20367;-95
2022/07/26 11:46:59;;;;;;;;;;;;;;;35.40;20.50;98721.44;4988457;28;19913;-95
2022/07/26 11:49:28;;;;;;;;;;;;;;;35.37;20.16;98718.75;4984011;28;20012;-95
2022/07/26 11:51:55;;;;;;;;;;;;;;;35.45;21.11;98716.47;4984263;28;19913;-93
2022/07/26 11:54:21;;;;;;;;;;;;;;;35.65;22.36;98707.78;4999128;28;20292;-93
2022/07/26 11:56:50;;;;;;;;;;;;;;;35.79;21.73;98710.06;5000640;28;19921;-95
2022/07/26 11:59:18;;;;;;;;;;;;;;;35.96;21.87;98710.63;4989502;28;19920;-94
2022/07/26 12:02:14;;;;;;;;;;;;;;;;;;;;;
2022/07/26 12:04:40;;;;;;;;;;;;;;;36.27;21.57;98696.66;5009773;28;20012;-91
2022/07/26 12:07:53;;;;;;;;;;;;;;;36.39;21.17;98697.81;5019291;28;20379;-92
2022/07/26 12:10:19;;;;;;;;;;;;;;;36.57;20.33;98697.09;4944143;29;19964;-92
2022/07/26 12:12:44;;;;;;;;;;;;;;;36.58;21.18;98698.66;4946468;29;20285;-92
2022/07/26 12:15:09;;;;;;;;;;;;;;;36.71;21.10;98696.56;4922010;29;19918;-91
2022/07/26 12:17:35;;;;;;;;;;;;;;;36.80;20.69;98693.75;4938711;28;19914;-92
2022/07/26 12:20:15;;;;;;;;;;;;;;;36.84;20.86;98690.00;4998094;28;19914;-93
2022/07/26 12:22:41;;;;;;;;;;;;;;;36.88;20.14;98680.22;4981889;28;20383;-92
2022/07/26 12:25:07;;;;;;;;;;;;;;;36.79;20.05;98674.56;5012089;28;19948;-94
2022/07/26 12:27:39;;;;;;;;;;;;;;;36.91;20.38;98681.31;4983077;28;20439;-93
2022/07/26 12:30:10;;;;;;;;;;;;;;;36.97;19.74;98679.44;4996750;28;19914;-94
2022/07/26 12:32:47;;;;;;;;;;;;;;;37.15;20.86;98673.88;4996639;28;19936;-94
2022/07/26 12:35:24;;;;;;;;;;;;;;;37.24;19.93;98675.13;4984363;28;19924;-94
2022/07/26 12:37:52;;;;;;;;;;;;;;;37.15;19.61;98673.09;4975410;28;21607;-90
2022/07/26 12:40:23;;;;;;;;;;;;;;;37.31;19.42;98672.00;5015791;28;19913;-94
2022/07/26 12:42:51;;;;;;;;;;;;;;;37.35;19.89;98661.38;5014830;28;19917;-95
2022/07/26 12:48:26;;;;;;;;;;;;;;;37.62;19.27;98666.22;5023057;28;19924;-93
2022/07/26 12:50:55;;;;;;;;;;;;;;;37.71;18.41;98662.59;5014849;28;19922;-92
2022/07/26 12:53:23;;;;;;;;;;;;;;;37.85;18.95;98655.56;5016100;28;19921;-95
2022/07/26 12:55:51;;;;;;;;;;;;;;;37.80;18.57;98657.75;5018993;28;19912;-93
2022/07/26 12:58:19;;;;;;;;;;;;;;;37.86;18.41;98648.69;5009581;28;19917;-96
2022/07/26 13:00:47;;;;;;;;;;;;;;;37.91;17.44;98643.19;4996946;28;19957;-94
2022/07/26 13:03:12;;;;;;;;;;;;;;;37.96;17.99;98648.19;4999999;28;20008;-94
2022/07/26 13:05:44;;;;;;;;;;;;;;;37.91;18.81;98645.22;4982344;28;19956;-95
2022/07/26 13:08:09;;;;;;;;;;;;;;;37.88;17.81;98643.38;5001239;28;19913;-96